Time;durP1;ratioP1;P1;durP2;ratioP2;P2;SDS_P1;SDS_P2;PMS_P1;PMS_P2;Temp;Humidity;BMP_temperature;BMP_pressure;BME280_temperature;BME280_humidity;BME280_pressure;Samples;Min_cycle;Max_cycle;Signal;HPM_P1;HPM_P2
2022/07/21 00:00:50;;;;;;;4.45;2.47;;;;;;;23.40;42.11;100494.56;5043717;28;20997;-80
2022/07/21 00:03:15;;;;;;;4.82;2.15;;;;;;;23.37;42.06;100494.75;5041364;28;20553;-81
2022/07/21 00:05:40;;;;;;;5.45;2.58;;;;;;;23.37;41.88;100493.88;5041610;28;20389;-80
2022/07/21 00:08:06;;;;;;;4.35;2.20;;;;;;;23.34;41.87;100494.06;5044674;28;20349;-80
2022/07/21 00:10:31;;;;;;;9.65;3.05;;;;;;;23.33;42.13;100500.41;5025310;28;20041;-80
2022/07/21 00:12:57;;;;;;;5.88;2.53;;;;;;;23.35;42.08;100501.19;5043114;28;20037;-80
2022/07/21 00:15:25;;;;;;;9.18;2.67;;;;;;;23.35;42.52;100496.66;5042989;28;20041;-80
2022/07/21 00:17:51;;;;;;;6.80;2.50;;;;;;;23.36;42.36;100494.84;5024047;28;20038;-80
2022/07/21 00:20:18;;;;;;;5.53;2.35;;;;;;;23.37;42.09;100502.84;5046323;28;20033;-80
2022/07/21 00:22:44;;;;;;;8.55;2.30;;;;;;;23.37;42.42;100499.25;5045151;28;20045;-80
2022/07/21 00:25:11;;;;;;;6.57;2.70;;;;;;;23.39;42.50;100500.88;5044568;28;20447;-80
2022/07/21 00:27:36;;;;;;;5.78;3.00;;;;;;;23.40;42.53;100507.16;5043947;28;20175;-80
2022/07/21 00:30:07;;;;;;;10.45;2.67;;;;;;;23.38;42.43;100506.38;5045594;28;20071;-80
2022/07/21 00:32:33;;;;;;;4.75;2.70;;;;;;;23.33;42.19;100497.72;5041924;28;20083;-80
2022/07/21 00:34:58;;;;;;;4.85;2.60;;;;;;;23.32;42.35;100496.00;5043027;28;20535;-80
2022/07/21 00:37:24;;;;;;;6.22;2.33;;;;;;;23.31;42.33;100494.25;5030295;28;20041;-80
2022/07/21 00:39:55;;;;;;;3.60;2.13;;;;;;;23.30;43.02;100492.53;5047599;28;20037;-80
2022/07/21 00:42:26;;;;;;;6.70;2.50;;;;;;;23.29;42.49;100491.66;5027388;28;20045;-80
2022/07/21 00:44:51;;;;;;;6.43;2.60;;;;;;;23.27;42.71;100484.63;5042833;28;20037;-79
2022/07/21 00:47:22;;;;;;;7.57;2.72;;;;;;;23.27;43.14;100485.50;5047892;28;20459;-80
2022/07/21 00:49:47;;;;;;;6.38;2.88;;;;;;;23.23;42.58;100488.44;5050153;28;20075;-80
2022/07/21 00:52:13;;;;;;;5.28;2.55;;;;;;;23.17;43.06;100492.38;5030389;28;20404;-80
2022/07/21 00:54:38;;;;;;;6.93;3.10;;;;;;;23.06;43.28;100501.09;5051450;28;20041;-80
2022/07/21 00:57:05;;;;;;;4.45;2.28;;;;;;;23.00;43.34;100509.50;4999245;28;20061;-79
2022/07/21 00:59:30;;;;;;;5.57;2.80;;;;;;;22.94;44.03;100517.91;5052930;28;20037;-80
2022/07/21 01:01:55;;;;;;;6.13;2.60;;;;;;;22.84;43.83;100516.69;5050304;28;20045;-80
2022/07/21 01:04:21;;;;;;;7.35;2.60;;;;;;;22.78;44.31;100527.81;5051422;28;20076;-80
2022/07/21 01:06:47;;;;;;;4.53;2.25;;;;;;;22.73;44.84;100531.63;5047262;28;20037;-80
2022/07/21 01:09:12;;;;;;;5.80;2.80;;;;;;;22.44;47.22;100545.84;5048245;28;20040;-80
2022/07/21 01:11:39;;;;;;;5.82;2.55;;;;;;;22.40;45.44;100545.16;5046287;28;20041;-80
2022/07/21 01:14:05;;;;;;;4.90;2.70;;;;;;;22.47;45.13;100546.53;5048825;28;20029;-80
2022/07/21 01:16:31;;;;;;;5.00;2.97;;;;;;;22.49;45.14;100543.78;5031138;28;20059;-80
2022/07/21 01:18:56;;;;;;;5.13;2.90;;;;;;;22.45;45.61;100531.44;5028993;28;20654;-80
2022/07/21 01:21:40;;;;;;;8.93;2.55;;;;;;;22.40;47.69;100537.09;5008317;28;20504;-80
2022/07/21 01:24:06;;;;;;;5.55;2.30;;;;;;;22.28;46.29;100537.75;5047596;28;20033;-80
2022/07/21 01:26:41;;;;;;;5.72;2.85;;;;;;;22.21;47.45;100526.47;5046259;28;20118;-80
2022/07/21 01:29:06;;;;;;;5.97;2.63;;;;;;;22.22;46.36;100522.84;5043301;28;20045;-80
2022/07/21 01:31:31;;;;;;;5.32;2.45;;;;;;;22.31;46.51;100530.38;5046623;28;20047;-80
2022/07/21 01:33:57;;;;;;;5.70;2.45;;;;;;;22.34;46.12;100528.50;5050906;28;20037;-80
2022/07/21 01:36:22;;;;;;;5.28;2.53;;;;;;;22.33;46.59;100518.69;5046880;28;20045;-80
2022/07/21 01:41:34;;;;;;;5.90;2.90;;;;;;;22.34;46.20;100540.09;5047603;28;20045;-80
2022/07/21 01:44:03;;;;;;;7.55;3.05;;;;;;;22.39;46.39;100537.19;5044948;28;20033;-80
2022/07/21 01:46:31;;;;;;;5.10;2.58;;;;;;;22.41;46.30;100540.66;5041308;28;20041;-80
2022/07/21 01:48:56;;;;;;;7.68;2.80;;;;;;;22.35;47.43;100541.88;5046665;28;20017;-80
2022/07/21 01:51:22;;;;;;;6.03;2.65;;;;;;;22.21;48.46;100545.28;5038664;28;20037;-80
2022/07/21 01:53:47;;;;;;;6.95;2.67;;;;;;;22.03;48.88;100548.94;5046551;28;20041;-81
2022/07/21 01:56:13;;;;;;;7.32;2.28;;;;;;;21.96;49.10;100556.47;5050228;28;20040;-80
2022/07/21 01:58:38;;;;;;;4.43;2.60;;;;;;;21.95;49.03;100546.66;5040014;28;20060;-80
2022/07/21 02:01:04;;;;;;;4.50;2.83;;;;;;;22.02;49.06;100553.44;5047656;28;20032;-80
2022/07/21 02:03:30;;;;;;;7.10;2.45;;;;;;;21.92;48.23;100560.25;5030821;28;20050;-80
2022/07/21 02:06:05;;;;;;;7.95;2.40;;;;;;;22.12;47.93;100542.22;5048029;28;20040;-79
2022/07/21 02:08:31;;;;;;;6.47;2.70;;;;;;;22.39;46.75;100538.03;5029377;28;20040;-80
2022/07/21 02:10:57;;;;;;;6.28;3.13;;;;;;;22.68;45.72;100543.63;5052936;28;20036;-80
2022/07/21 02:13:22;;;;;;;4.55;2.40;;;;;;;22.91;45.41;100555.78;5035185;28;20087;-80
2022/07/21 02:15:47;;;;;;;5.35;2.60;;;;;;;23.06;45.33;100549.53;5031027;28;20041;-79
2022/07/21 02:18:13;;;;;;;4.93;2.35;;;;;;;23.21;44.98;100554.97;5046091;28;20040;-80
2022/07/21 02:20:38;;;;;;;6.22;2.72;;;;;;;23.31;44.53;100556.19;5044091;28;20079;-80
2022/07/21 02:23:03;;;;;;;6.72;2.42;;;;;;;23.39;44.12;100553.91;5046248;28;20123;-80
2022/07/21 02:25:29;;;;;;;4.32;2.47;;;;;;;23.46;43.73;100554.41;5009827;28;20037;-80
2022/07/21 02:27:54;;;;;;;5.25;2.70;;;;;;;23.52;43.77;100565.66;5045517;28;20045;-80
2022/07/21 02:30:19;;;;;;;6.53;3.22;;;;;;;23.60;43.89;100562.53;5044658;28;20037;-80
2022/07/21 02:32:45;;;;;;;6.10;3.55;;;;;;;23.71;44.11;100561.88;5043102;28;20040;-80
2022/07/21 02:35:10;;;;;;;8.80;3.15;;;;;;;23.80;43.52;100564.06;5046060;28;20052;-79
2022/07/21 02:37:37;;;;;;;5.85;3.72;;;;;;;23.87;43.17;100567.22;5025351;28;20033;-80
2022/07/21 02:40:03;;;;;;;5.95;3.75;;;;;;;23.86;43.86;100571.75;5039110;28;20045;-80
2022/07/21 02:42:28;;;;;;;4.35;2.88;;;;;;;23.87;43.27;100570.81;5027026;28;20174;-81
2022/07/21 02:44:53;;;;;;;6.15;3.22;;;;;;;23.87;43.53;100578.00;5028180;28;20038;-80
2022/07/21 02:47:19;;;;;;;8.10;4.00;;;;;;;23.86;43.57;100579.84;5026911;28;20187;-80
2022/07/21 02:49:45;;;;;;;7.57;3.53;;;;;;;23.87;43.76;100578.91;4996129;28;20123;-80
2022/07/21 02:52:10;;;;;;;8.50;3.72;;;;;;;23.88;43.75;100586.00;5025143;28;20061;-80
2022/07/21 02:54:35;;;;;;;7.22;3.85;;;;;;;23.88;43.93;100580.63;5022199;28;20045;-80
2022/07/21 02:57:01;;;;;;;12.88;3.90;;;;;;;23.89;44.05;100587.75;5045924;28;20119;-80
2022/07/21 02:59:26;;;;;;;10.18;3.63;;;;;;;23.88;44.18;100588.72;5043033;28;20133;-80
2022/07/21 03:01:51;;;;;;;14.07;4.93;;;;;;;23.83;45.39;100598.91;5042919;28;20034;-80
2022/07/21 03:04:17;;;;;;;10.65;5.18;;;;;;;23.85;44.60;100599.69;5044782;28;20045;-80
2022/07/21 03:06:42;;;;;;;6.15;4.05;;;;;;;23.89;45.09;100598.53;5043572;28;20044;-80
2022/07/21 03:09:08;;;;;;;10.35;4.45;;;;;;;23.97;45.02;100598.06;5046080;28;20040;-81
2022/07/21 03:11:34;;;;;;;15.10;5.43;;;;;;;23.97;45.54;100601.66;5024473;28;20587;-80
2022/07/21 03:13:59;;;;;;;10.95;5.13;;;;;;;24.00;46.01;100601.44;5050781;28;20111;-80
2022/07/21 03:16:25;;;;;;;12.20;4.95;;;;;;;24.03;46.19;100609.34;5050160;28;20036;-80
2022/07/21 03:18:50;;;;;;;12.18;4.60;;;;;;;24.07;46.91;100601.94;5011673;28;20026;-81
2022/07/21 03:21:15;;;;;;;14.63;5.38;;;;;;;24.08;47.03;100614.47;5039962;28;20040;-80
2022/07/21 03:23:45;;;;;;;11.15;5.72;;;;;;;24.10;47.75;100608.97;5046059;28;20044;-80
2022/07/21 03:26:12;;;;;;;10.38;5.82;;;;;;;24.11;47.92;100613.41;5044667;28;20048;-81
2022/07/21 03:28:37;;;;;;;16.40;7.70;;;;;;;24.15;47.90;100614.94;5047294;28;20068;-81
2022/07/21 03:31:03;;;;;;;18.20;5.60;;;;;;;24.16;49.13;100620.25;5047757;28;20025;-80
2022/07/21 03:33:28;;;;;;;9.68;5.78;;;;;;;24.21;48.67;100619.97;5044666;28;20064;-81
2022/07/21 03:35:53;;;;;;;22.83;6.72;;;;;;;24.23;49.16;100618.03;5029980;28;20033;-80
2022/07/21 03:38:19;;;;;;;11.73;5.85;;;;;;;24.23;48.53;100623.41;5045190;28;20463;-81
2022/07/21 03:40:44;;;;;;;10.65;5.68;;;;;;;24.23;49.08;100613.53;5043233;28;20438;-81
2022/07/21 03:43:09;;;;;;;11.35;6.20;;;;;;;24.24;49.73;100620.66;5046391;28;20472;-80
2022/07/21 03:45:36;;;;;;;13.40;6.50;;;;;;;24.25;50.05;100621.50;5040716;28;20032;-81
2022/07/21 03:48:03;;;;;;;14.50;6.70;;;;;;;24.22;49.96;100621.69;5045080;28;20092;-81
2022/07/21 03:50:30;;;;;;;14.82;6.05;;;;;;;24.23;49.65;100623.41;5045490;28;20052;-81
2022/07/21 03:52:55;;;;;;;11.40;6.22;;;;;;;24.25;49.83;100633.16;5065897;28;20096;-81
2022/07/21 03:55:21;;;;;;;13.05;6.97;;;;;;;24.23;49.86;100635.09;5062419;28;20119;-79
2022/07/21 03:57:57;;;;;;;16.52;7.70;;;;;;;24.26;50.82;100628.63;5064731;28;20044;-81
2022/07/21 04:00:38;;;;;;;13.82;5.97;;;;;;;24.23;50.85;100639.59;5065713;28;20040;-80
2022/07/21 04:03:04;;;;;;;14.90;7.80;;;;;;;24.22;50.82;100648.66;5032092;28;20041;-80
2022/07/21 04:05:30;;;;;;;9.80;6.93;;;;;;;24.21;49.83;100655.03;5044589;28;20570;-81
2022/07/21 04:07:56;;;;;;;14.38;6.88;;;;;;;24.17;50.56;100658.88;5065464;28;20086;-80
2022/07/21 04:10:26;;;;;;;10.85;6.22;;;;;;;24.16;51.09;100665.22;5059742;28;20071;-80
2022/07/21 04:12:52;;;;;;;11.53;6.30;;;;;;;24.11;51.19;100672.72;5066146;28;20182;-79
2022/07/21 04:15:18;;;;;;;12.02;8.27;;;;;;;24.12;50.95;100669.06;5070819;28;20143;-81
2022/07/21 04:17:45;;;;;;;14.25;8.48;;;;;;;24.12;50.89;100671.75;5051501;28;20037;-80
2022/07/21 04:20:12;;;;;;;17.90;7.07;;;;;;;24.08;51.28;100681.88;5053376;28;20039;-80
2022/07/21 04:22:38;;;;;;;19.08;7.15;;;;;;;24.09;50.86;100693.50;5076461;28;20051;-79
2022/07/21 04:25:05;;;;;;;10.35;7.50;;;;;;;24.10;51.38;100687.16;5079250;28;20036;-80
2022/07/21 04:27:30;;;;;;;11.07;7.00;;;;;;;24.10;51.07;100687.16;5073872;28;20036;-79
2022/07/21 04:29:56;;;;;;;16.63;6.95;;;;;;;24.11;51.43;100694.28;5064482;28;20384;-79
2022/07/21 04:32:21;;;;;;;11.27;6.88;;;;;;;24.16;51.07;100698.44;5063813;28;20548;-80
2022/07/21 04:34:47;;;;;;;11.20;5.97;;;;;;;24.18;51.53;100695.63;5052523;28;20037;-80
2022/07/21 04:37:12;;;;;;;15.18;6.82;;;;;;;24.25;50.95;100699.72;5057980;28;20044;-81
2022/07/21 04:39:38;;;;;;;11.10;6.70;;;;;;;24.30;50.50;100696.75;5055964;28;20033;-80
2022/07/21 04:42:03;;;;;;;21.67;7.45;;;;;;;24.34;51.16;100701.88;5058726;28;20040;-80
2022/07/21 04:44:28;;;;;;;12.98;6.63;;;;;;;24.38;51.03;100706.09;5054978;28;20041;-80
2022/07/21 04:46:54;;;;;;;14.63;7.40;;;;;;;24.43;50.51;100706.69;5064345;28;20515;-80
2022/07/21 04:49:19;;;;;;;9.80;5.70;;;;;;;24.51;50.30;100702.69;5050180;28;20467;-80
2022/07/21 04:51:44;;;;;;;17.15;6.70;;;;;;;24.53;50.25;100696.22;5064550;28;20367;-79
2022/07/21 04:54:13;;;;;;;13.55;5.38;;;;;;;24.58;50.24;100704.06;5065791;28;20047;-81
2022/07/21 04:56:39;;;;;;;12.43;6.63;;;;;;;24.63;50.28;100707.34;5049450;28;20067;-80
2022/07/21 04:59:04;;;;;;;16.20;7.20;;;;;;;24.68;50.19;100697.97;5064154;28;20064;-80
2022/07/21 05:01:30;;;;;;;18.65;8.05;;;;;;;24.71;50.31;100699.63;5063351;28;20037;-80
2022/07/21 05:03:55;;;;;;;13.98;7.43;;;;;;;24.73;50.50;100692.28;5063757;28;20041;-80
2022/07/21 05:06:20;;;;;;;13.80;5.85;;;;;;;24.73;50.12;100692.28;5067788;28;20056;-81
2022/07/21 05:08:47;;;;;;;13.35;6.10;;;;;;;24.78;50.42;100673.97;5064273;28;20056;-80
2022/07/21 05:11:12;;;;;;;8.52;4.90;;;;;;;24.86;49.92;100671.66;5065168;28;20072;-80
2022/07/21 05:13:38;;;;;;;11.05;6.50;;;;;;;24.92;49.94;100681.22;5066173;28;20078;-80
2022/07/21 05:16:04;;;;;;;14.23;8.32;;;;;;;24.94;50.31;100684.66;5065225;28;20442;-80
2022/07/21 05:18:29;;;;;;;12.85;7.15;;;;;;;24.95;50.91;100685.53;5067381;28;20409;-81
2022/07/21 05:20:54;;;;;;;11.45;6.55;;;;;;;24.98;50.37;100683.50;5063409;28;20029;-81
2022/07/21 05:23:20;;;;;;;17.45;6.50;;;;;;;25.09;50.76;100693.63;5063251;28;20036;-80
2022/07/21 05:25:45;;;;;;;9.18;5.40;;;;;;;25.17;49.91;100694.00;5048485;28;20086;-80
2022/07/21 05:28:10;;;;;;;8.88;6.53;;;;;;;25.27;50.27;100695.16;5062702;28;20516;-81
2022/07/21 05:30:36;;;;;;;17.77;7.47;;;;;;;25.34;49.81;100693.81;5046475;28;20479;-81
2022/07/21 05:33:01;;;;;;;9.82;6.82;;;;;;;25.43;49.58;100688.75;5028665;28;20063;-81
2022/07/21 05:35:26;;;;;;;9.70;5.93;;;;;;;25.50;49.08;100690.94;5046442;28;20037;-80
2022/07/21 05:37:52;;;;;;;15.07;5.93;;;;;;;25.56;48.64;100695.94;5048825;28;20048;-81
2022/07/21 05:40:17;;;;;;;16.13;7.25;;;;;;;25.67;48.82;100711.44;5047955;28;20044;-81
2022/07/21 05:42:42;;;;;;;14.60;6.10;;;;;;;25.76;48.42;100710.84;5066584;28;20033;-81
2022/07/21 05:45:08;;;;;;;13.73;7.07;;;;;;;25.84;48.63;100712.19;5066001;28;20132;-81
2022/07/21 05:47:34;;;;;;;10.48;6.78;;;;;;;25.94;48.15;100708.78;5063961;28;20071;-80
2022/07/21 05:49:59;;;;;;;9.05;5.97;;;;;;;26.05;47.69;100707.19;5066459;28;20049;-81
2022/07/21 05:52:25;;;;;;;12.07;6.95;;;;;;;26.17;47.82;100701.81;5063117;28;20119;-81
2022/07/21 05:54:50;;;;;;;11.88;5.45;;;;;;;26.27;46.99;100702.00;5066501;28;20115;-81
2022/07/21 05:57:15;;;;;;;14.82;7.03;;;;;;;26.40;46.75;100707.44;5066213;28;20036;-81
2022/07/21 05:59:41;;;;;;;10.15;5.90;;;;;;;26.51;46.41;100707.56;5065228;28;20068;-81
2022/07/21 06:02:07;;;;;;;11.98;7.35;;;;;;;26.56;45.98;100702.72;5061057;28;20124;-81
2022/07/21 06:04:32;;;;;;;13.60;6.32;;;;;;;26.56;45.62;100710.84;5060252;28;20044;-81
2022/07/21 06:06:57;;;;;;;7.90;5.72;;;;;;;26.61;45.59;100697.84;5012871;28;20029;-81
2022/07/21 06:09:23;;;;;;;10.85;5.75;;;;;;;26.73;45.84;100706.94;5065772;28;20032;-81
2022/07/21 06:11:48;;;;;;;15.20;7.88;;;;;;;26.86;44.97;100699.69;5032608;28;20037;-81
2022/07/21 06:14:13;;;;;;;12.10;7.20;;;;;;;27.09;44.10;100703.44;5057057;28;20063;-81
2022/07/21 06:16:38;;;;;;;6.80;4.93;;;;;;;27.25;43.30;100702.38;5063106;28;20388;-82
2022/07/21 06:19:07;;;;;;;8.40;5.75;;;;;;;27.45;42.61;100704.44;5062265;28;20403;-81
2022/07/21 06:21:33;;;;;;;8.88;4.82;;;;;;;27.77;41.74;100703.88;5066093;28;20134;-82
2022/07/21 06:23:58;;;;;;;12.50;5.72;;;;;;;27.90;40.55;100703.84;5066294;28;20138;-81
2022/07/21 06:26:24;;;;;;;7.28;4.97;;;;;;;27.93;39.71;100709.91;5062867;28;20054;-81
2022/07/21 06:28:49;;;;;;;8.88;5.93;;;;;;;27.73;40.25;100711.38;5062242;28;20037;-81
2022/07/21 06:31:15;;;;;;;12.68;5.63;;;;;;;27.74;40.58;100709.53;5064395;28;20041;-81
2022/07/21 06:33:40;;;;;;;8.77;5.43;;;;;;;27.92;40.73;100710.88;5058691;28;20515;-82
2022/07/21 06:36:07;;;;;;;10.13;4.90;;;;;;;27.96;40.32;100715.09;5062286;28;20033;-82
2022/07/21 06:38:32;;;;;;;9.63;5.80;;;;;;;27.90;40.54;100721.00;5041685;22;20612;-82
2022/07/21 06:40:57;;;;;;;9.82;5.20;;;;;;;27.92;40.40;100712.75;5039478;28;20107;-82
2022/07/21 06:43:23;;;;;;;10.02;5.60;;;;;;;28.02;40.18;100715.63;5011380;28;20037;-81
2022/07/21 06:45:50;;;;;;;8.07;4.90;;;;;;;28.13;40.15;100715.66;5023920;28;20034;-82
2022/07/21 06:48:46;;;;;;;9.13;5.68;;;;;;;28.42;39.66;100716.97;5164860;23;20124;-80
2022/07/21 06:51:11;;;;;;;13.20;5.25;;;;;;;28.57;39.09;100724.94;5014441;28;20056;-82
2022/07/21 06:53:36;;;;;;;9.63;5.75;;;;;;;28.52;39.05;100728.00;5052775;28;20041;-82
2022/07/21 06:56:02;;;;;;;10.73;5.78;;;;;;;28.67;38.76;100717.81;5053002;28;20057;-82
2022/07/21 06:58:27;;;;;;;8.80;5.78;;;;;;;28.92;38.53;100729.41;5030034;28;20040;-82
2022/07/21 07:00:53;;;;;;;11.07;5.78;;;;;;;29.21;38.76;100733.41;5037677;28;20087;-82
2022/07/21 07:03:19;;;;;;;13.45;5.93;;;;;;;29.41;38.03;100736.34;5046380;28;20033;-82
2022/07/21 07:05:46;;;;;;;7.45;4.95;;;;;;;29.37;37.00;100737.56;5023922;28;20032;-82
2022/07/21 07:08:12;;;;;;;10.13;5.22;;;;;;;29.24;37.01;100733.16;5041665;28;20021;-82
2022/07/21 07:10:40;;;;;;;7.50;4.35;;;;;;;29.26;37.00;100744.75;5043226;28;20045;-82
2022/07/21 07:13:06;;;;;;;8.63;5.45;;;;;;;29.15;37.73;100746.63;5043367;28;20040;-82
2022/07/21 07:15:31;;;;;;;7.53;5.43;;;;;;;29.04;37.39;100750.16;5043051;28;20155;-82
2022/07/21 07:17:56;;;;;;;10.98;5.57;;;;;;;29.05;37.63;100746.50;5045691;28;20096;-83
2022/07/21 07:20:24;;;;;;;9.25;4.53;;;;;;;29.24;36.99;100735.88;5042459;28;20110;-82
2022/07/21 07:22:49;;;;;;;12.07;5.25;;;;;;;29.40;36.89;100751.78;5043930;28;20037;-82
2022/07/21 07:25:18;;;;;;;6.75;4.90;;;;;;;29.31;36.54;100748.94;5044705;28;20036;-83
2022/07/21 07:27:48;;;;;;;7.90;4.80;;;;;;;28.99;36.84;100739.66;5040446;28;20033;-82
2022/07/21 07:30:15;;;;;;;15.93;5.90;;;;;;;29.10;36.88;100743.41;5028109;28;20041;-83
2022/07/21 07:32:41;;;;;;;11.05;6.03;;;;;;;29.23;37.42;100742.28;5044094;28;20112;-82
2022/07/21 07:35:08;;;;;;;8.80;5.22;;;;;;;29.39;38.09;100749.19;5044061;28;20447;-82
2022/07/21 07:37:35;;;;;;;9.65;7.45;;;;;;;29.48;37.28;100743.88;5041070;28;20113;-83
2022/07/21 07:40:03;;;;;;;7.70;5.38;;;;;;;29.17;37.18;100755.53;5001109;28;20511;-82
2022/07/21 07:42:28;;;;;;;7.07;5.10;;;;;;;29.04;37.36;100761.94;5038915;28;20096;-82
2022/07/21 07:44:54;;;;;;;8.50;4.75;;;;;;;29.00;37.61;100760.44;5032389;28;20464;-82
2022/07/21 07:47:19;;;;;;;8.07;4.95;;;;;;;29.09;38.03;100761.56;5049038;28;20443;-82
2022/07/21 07:49:44;;;;;;;7.32;5.20;;;;;;;29.20;37.07;100758.84;5047339;28;20425;-82
2022/07/21 07:52:10;;;;;;;8.23;4.55;;;;;;;29.22;36.66;100759.59;5055278;28;20526;-82
2022/07/21 07:54:35;;;;;;;7.90;5.07;;;;;;;29.23;36.85;100761.31;5045088;28;20041;-82
2022/07/21 07:57:00;;;;;;;10.13;5.43;;;;;;;29.52;37.19;100771.66;5047864;28;20198;-83
2022/07/21 07:59:26;;;;;;;8.50;5.22;;;;;;;29.65;36.88;100766.97;5014022;28;20536;-82
2022/07/21 08:01:51;;;;;;;9.32;4.85;;;;;;;29.64;36.55;100767.09;5045759;28;20710;-83
2022/07/21 08:04:17;;;;;;;8.50;5.47;;;;;;;29.63;36.95;100763.50;5044940;28;20075;-83
2022/07/21 08:06:42;;;;;;;11.70;4.20;;;;;;;29.65;36.40;100763.38;5030800;28;20044;-82
2022/07/21 08:12:25;;;;;;;;;;;;;;;29.17;37.50;100775.41;5047857;28;20069;-84
2022/07/21 08:14:56;;;;;;;7.75;4.63;;;;;;;29.00;37.32;100775.84;5035000;28;19923;-82
2022/07/21 08:17:36;;;;;;;10.45;4.40;;;;;;;28.71;37.79;100778.16;5047528;28;21070;-81
2022/07/21 08:20:07;;;;;;;;;;;;;;;28.79;38.44;100784.75;5049988;28;20047;-81
2022/07/21 08:22:33;;;;;;;6.22;4.22;;;;;;;28.88;37.79;100777.69;5046147;28;19913;-81
2022/07/21 08:24:58;;;;;;;6.15;4.38;;;;;;;28.86;38.03;100768.81;5047379;28;20443;-83
2022/07/21 08:27:23;;;;;;;8.90;4.20;;;;;;;28.89;37.29;100781.28;5048315;28;20029;-81
2022/07/21 08:29:49;;;;;;;7.07;5.15;;;;;;;28.95;37.92;100769.91;5049202;28;20033;-82
2022/07/21 08:32:44;;;;;;;9.48;4.10;;;;;;;29.00;37.83;100764.97;5042764;28;20444;-82
2022/07/21 08:35:10;;;;;;;9.65;5.07;;;;;;;28.86;38.49;100762.50;5042395;28;20072;-82
2022/07/21 08:38:13;;;;;;;9.75;6.63;;;;;;;29.20;37.57;100764.28;5047181;28;20441;-82
2022/07/21 08:40:48;;;;;;;12.10;8.02;;;;;;;29.48;36.88;100753.88;5032039;28;20028;-82
2022/07/21 08:43:14;;;;;;;7.68;4.38;;;;;;;29.62;36.85;100761.75;5045494;28;20076;-82
2022/07/21 08:45:49;;;;;;;8.00;4.53;;;;;;;29.82;36.46;100756.56;5029607;28;20052;-82
2022/07/21 08:48:23;;;;;;;8.07;4.43;;;;;;;29.84;36.06;100760.88;5048197;28;20041;-82
2022/07/21 08:51:00;;;;;;;9.32;4.78;;;;;;;29.95;36.78;100757.25;5043281;28;20069;-83
2022/07/21 08:53:46;;;;;;;11.13;4.85;;;;;;;30.17;36.17;100755.44;5044148;28;20037;-82
2022/07/21 08:59:49;;;;;;;9.63;5.20;;;;;;;30.96;34.77;100750.41;3319519;26;20049;-82
2022/07/21 09:02:34;;;;;;;;;;;;;;;31.14;34.14;100758.84;5048193;28;20067;-82
2022/07/21 09:05:04;;;;;;;7.47;5.20;;;;;;;31.39;34.17;100752.94;5064609;28;19916;-82
2022/07/21 09:08:00;;;;;;;6.13;4.60;;;;;;;31.66;33.41;100756.88;5031115;28;20025;-83
2022/07/21 09:10:30;;;;;;;10.90;5.68;;;;;;;31.76;34.35;100755.03;5048656;28;20044;-83
2022/07/21 09:13:27;;;;;;;6.35;5.05;;;;;;;32.07;33.40;100760.41;5066925;28;20066;-83
2022/07/21 09:16:02;;;;;;;10.68;6.25;;;;;;;32.36;32.97;100754.06;5046536;28;20079;-82
2022/07/21 09:18:27;;;;;;;8.40;6.68;;;;;;;32.59;33.02;100755.50;5040310;28;20124;-83
2022/07/21 09:20:53;;;;;;;7.40;3.85;;;;;;;32.79;32.96;100766.38;5049382;28;20097;-83
2022/07/21 09:23:23;;;;;;;5.10;3.45;;;;;;;32.39;31.81;100761.97;5066779;28;20098;-83
2022/07/21 09:25:51;;;;;;;4.63;3.42;;;;;;;31.95;33.41;100759.69;5060025;28;20032;-83
2022/07/21 09:28:23;;;;;;;8.25;5.00;;;;;;;31.75;33.17;100760.63;5040137;28;20107;-82
2022/07/21 09:30:53;;;;;;;6.57;4.43;;;;;;;31.93;32.73;100758.09;5063706;28;20037;-82
2022/07/21 09:33:41;;;;;;;6.20;4.05;;;;;;;32.20;32.79;100747.34;5064502;28;20032;-83
2022/07/21 09:36:15;;;;;;;4.63;3.35;;;;;;;32.65;32.44;100767.72;5018099;28;20051;-82
2022/07/21 09:38:47;;;;;;;7.78;3.50;;;;;;;32.49;31.87;100751.94;5060846;28;20045;-82
2022/07/21 09:41:18;;;;;;;6.95;3.95;;;;;;;32.61;32.64;100775.34;5064982;28;20040;-82
2022/07/21 09:43:45;;;;;;;4.93;3.78;;;;;;;32.46;32.87;100750.31;5066726;28;20025;-82
2022/07/21 09:46:26;;;;;;;6.10;3.45;;;;;;;32.89;31.67;100757.16;5041371;28;20407;-82
2022/07/21 09:48:56;;;;;;;4.40;3.35;;;;;;;33.36;31.77;100757.13;5062876;28;20053;-82
2022/07/21 09:51:37;;;;;;;10.90;3.22;;;;;;;33.29;30.98;100758.75;5048511;28;20064;-82
2022/07/21 09:54:06;;;;;;;6.63;4.15;;;;;;;32.87;32.13;100761.03;5023837;28;20045;-82
2022/07/21 09:56:37;;;;;;;4.97;3.28;;;;;;;32.72;32.77;100764.25;5057952;28;20029;-83
2022/07/21 09:59:04;;;;;;;5.32;3.47;;;;;;;32.78;32.36;100775.59;5059593;28;20047;-84
2022/07/21 10:01:30;;;;;;;5.07;3.63;;;;;;;32.71;32.31;100769.88;5050970;28;20036;-82
2022/07/21 10:03:57;;;;;;;6.60;4.82;;;;;;;32.63;32.45;100767.00;5063380;28;20055;-83
2022/07/21 10:06:28;;;;;;;4.47;3.38;;;;;;;32.84;32.18;100753.16;5063857;28;20058;-83
2022/07/21 10:08:55;;;;;;;;;;;;;;;32.84;31.40;100764.06;5029542;28;20047;-83
2022/07/21 10:11:20;;;;;;;4.60;3.38;;;;;;;32.59;32.07;100766.41;5060211;28;19925;-84
2022/07/21 10:13:46;;;;;;;5.72;3.95;;;;;;;32.27;33.09;100761.25;5046079;28;20035;-84
2022/07/21 10:16:12;;;;;;;5.55;3.22;;;;;;;32.40;32.31;100755.50;5026743;28;20041;-83
2022/07/21 10:18:59;;;;;;;6.22;3.42;;;;;;;32.47;33.15;100759.38;5030352;28;20064;-84
2022/07/21 10:21:52;;;;;;;5.80;4.20;;;;;;;32.76;32.82;100758.50;5064306;28;20037;-83
2022/07/21 10:24:18;;;;;;;4.50;3.80;;;;;;;33.14;32.21;100752.94;5028231;28;20091;-84
2022/07/21 10:27:08;;;;;;;4.65;4.10;;;;;;;32.76;32.60;100763.97;5062447;28;20044;-83
2022/07/21 10:29:54;;;;;;;6.30;3.60;;;;;;;33.10;32.79;100756.97;5060701;28;20483;-83
2022/07/21 10:32:26;;;;;;;5.03;4.20;;;;;;;32.62;33.26;100762.53;5057786;28;20115;-84
2022/07/21 10:34:52;;;;;;;5.88;4.47;;;;;;;32.48;32.54;100785.72;5062823;28;20037;-83
2022/07/21 10:37:39;;;;;;;5.75;4.05;;;;;;;31.99;33.83;100771.16;5045731;28;20388;-82
2022/07/21 10:40:25;;;;;;;9.52;4.30;;;;;;;31.74;34.41;100764.34;5037144;28;20036;-82
2022/07/21 10:42:59;;;;;;;9.43;3.72;;;;;;;31.58;35.11;100760.31;5030880;28;20049;-83
2022/07/21 10:45:33;;;;;;;6.03;4.05;;;;;;;31.76;34.97;100785.03;5065502;28;20033;-82
2022/07/21 10:47:59;;;;;;;9.20;4.93;;;;;;;31.91;34.55;100781.91;5060337;28;20120;-81
2022/07/21 10:50:37;;;;;;;8.13;4.53;;;;;;;32.17;34.25;100782.22;5046029;28;20032;-82
2022/07/21 10:53:17;;;;;;;5.15;3.83;;;;;;;31.55;34.79;100763.31;5057110;28;20533;-82
2022/07/21 10:55:51;;;;;;;7.25;3.75;;;;;;;31.46;35.41;100783.22;5062841;28;20040;-83
2022/07/21 10:58:38;;;;;;;5.93;3.83;;;;;;;30.93;36.05;100778.81;5063624;28;20089;-82
2022/07/21 11:01:19;;;;;;;4.88;3.70;;;;;;;30.64;36.58;100784.06;5062484;28;20033;-82
2022/07/21 11:03:45;;;;;;;6.85;3.85;;;;;;;30.45;36.55;100783.94;5047997;28;20041;-82
2022/07/21 11:06:21;;;;;;;12.48;3.58;;;;;;;30.38;37.24;100775.41;5046418;28;20045;-82
2022/07/21 11:09:26;;;;;;;6.03;4.00;;;;;;;30.12;38.46;100783.03;5048951;28;20106;-82
2022/07/21 11:12:03;;;;;;;7.57;3.90;;;;;;;29.85;38.62;100789.81;5035559;28;20049;-82
2022/07/21 11:14:44;;;;;;;6.10;3.95;;;;;;;29.77;39.71;100807.78;5045116;28;20119;-82
2022/07/21 11:17:29;;;;;;;4.43;3.53;;;;;;;29.70;39.60;100827.28;5044638;28;20793;-82
2022/07/21 11:19:55;;;;;;;8.00;4.28;;;;;;;29.68;39.90;100817.53;5054424;28;20173;-82
2022/07/21 11:22:25;;;;;;;12.48;4.00;;;;;;;29.63;40.20;100828.78;5058286;28;20495;-82
2022/07/21 11:25:04;;;;;;;6.23;3.67;;;;;;;29.52;40.20;100838.78;5034921;28;20036;-82
2022/07/21 11:28:26;;;;;;;7.32;4.18;;;;;;;29.11;41.62;100813.06;5061219;23;20302;-82
2022/07/21 11:31:10;;;;;;;4.97;3.45;;;;;;;28.70;42.24;100831.63;5008042;28;20121;-82
2022/07/21 11:33:37;;;;;;;8.10;4.70;;;;;;;28.81;42.11;100845.22;5082962;28;20791;-82
2022/07/21 11:36:03;;;;;;;7.15;4.00;;;;;;;28.52;42.72;100835.75;5082903;28;20039;-82
2022/07/21 11:38:29;;;;;;;6.78;4.00;;;;;;;28.12;43.95;100857.75;5086889;28;20036;-82
2022/07/21 11:41:12;;;;;;;6.57;4.50;;;;;;;27.75;45.27;100857.72;5066381;28;20036;-83